Malay Falls, Nova Scotia

1:59 AM ADT on September 01, 2015 (GMT -0300)
Spanish Ship Bay | | Change Station
CLOSE
Current Station
Personal Weather Station
Location: Guysborough County, NOVA SCOTIA
Elevation: 50 ft
Nearby Weather Stations

Elev 50 ft 45.03 °N, 62.03 °W | Updated 44 seconds ago

Mostly Cloudy
Mostly Cloudy
64.2 °F
Feels Like 64.2 °F
N
10.0
Wind Variable Wind from West
Gusts 12.0 mph

Today is forecast to be nearly the same temperature as yesterday.

Today
High -- | Low -- °F
--% Chance of Precip.
Yesterday
High -- | Low -- °F
Precip. -- in
6:31 AM 7:47 PM
Waning Gibbous, 91% visible
Pressure 29.73 in
Visibility 15.0 miles
Clouds Mostly Cloudy 4900 ft
Dew Point 62 °F
Humidity 93%
Rainfall 0.00 in
Snow Depth Not available.
UV 0 out of 12
Pollen Not available.
Air Quality Not available.
Flu Activity Not available.
METAR CYHZ 010400Z 30010G18KT 15SM BKN049 19/15 A2973 RMK SC5 SLP065 DENSITY ALT 1300FT
Pressure 29.73 in
Visibility 15.0 miles
Clouds Mostly Cloudy 4900 ft
Dew Point 62 °F
Humidity 93%
Rainfall 0.00 in
Snow Depth Not available.
UV 0 out of 12
Pollen Not available.
Air Quality Not available.
Flu Activity Not available.
METAR CYHZ 010400Z 30010G18KT 15SM BKN049 19/15 A2973 RMK SC5 SLP065 DENSITY ALT 1300FT

10-Day Weather Forecast

×

Almanac

Astronomy

Sep. 01, 2015 Rise Set
Actual Time
Civil Twilight
Nautical Twilight
Astronomical Twilight
Moon
Length of Visible Light
Length of Day
Tomorrow will be .
, % of the Moon is Illuminated

Today's Extremes

Country Highs Country Lows

Community

WunderPhotos

Upload Photos

1,851,479 photos uploaded!

WunderBlogs® & News

Nearby

Air Quality

  Air Quality AQ Index Pollutant
Not available.

Snow Depth

Station Depth Elevation

Earthquake Activity

City Distance Mag. Time & Date
Minimum magnitude displayed is 2.5.

Coastal Water Temperatures

Place Temperature

Stations

Nearby Weather Stations

Station Location Temp. Windchill Dew Point Humidity Wind Precip. Elev Updated Type